Station: Launceston Airport  

  Atmospheric Gas Attenuation - ITU Rec 676-11   ----------------- dB/100km -----------------
Date Time Temp RH % AH g/m3 Dew Point Wind Direction Speed kph Gust kph Barometer mB Rainfall Since 9am 24GHz 47GHz 76GHz 122GHz 134GHz 241GHz
08/05 12:30 15.5 48 6.34 4.6 20 28 1015.4 0 14.7 22.1 30.6 79.7 68.4 233.7
08/05 12:20 14.3 50 6.14 4 11 15 1015.4 0 14.3 22.0 30.3 79.0 67.1 228.7
08/05 12:10 15.2 47 6.1 4 19 22 1015.4 0 14.2 21.8 29.8 77.7 65.9 224.6
08/05 12:00 15.1 49 6.32 4.5 20 39 1015.3 0 14.7 22.1 30.6 79.9 68.5 234.0
08/05 11:50 15 47 6.03 3.8 24 28 1015.4 0 14.1 21.7 29.6 77.3 65.2 222.2
08/05 11:40 15.6 48 6.38 4.6 20 24 1015.4 0 14.8 22.1 30.7 80.0 68.8 235.1
08/05 11:30 14.9 49 6.24 4.3 22 33 1015.3 0 14.5 22.0 30.4 79.4 67.8 231.2
08/05 11:20 14.4 49 6.06 3.8 30 35 1015.3 0 14.2 21.9 30.0 78.1 66.0 225.1
08/05 11:10 14.6 50 6.26 4.3 26 33 1015 0 14.6 22.1 30.6 79.8 68.2 232.8
08/05 11:00 14.8 49 6.21 4.2 26 37 1015 0 14.5 22.0 30.3 79.1 67.5 230.2
08/05 10:50 14.5 50 6.22 4.2 20 22 1015 0 14.5 22.1 30.5 79.5 67.8 231.5
08/05 10:40 14.2 50 6.11 3.9 30 35 1015 0 14.3 22.0 30.2 78.8 66.8 227.7
08/05 10:30 13.9 51 6.11 3.9 30 46 1014.8 0 14.3 22.1 30.3 79.0 67.0 228.5
08/05 10:20 13.9 51 6.11 3.9 28 32 1014.5 0 14.3 22.1 30.3 79.0 67.0 228.4
08/05 10:10 13.8 50 5.96 3.6 30 35 1014.4 0 14.0 21.9 29.8 77.7 65.3 222.4
08/05 10:00 13.5 52 6.08 3.8 30 43 1014.1 0 14.2 22.1 30.3 79.1 67.0 228.2
08/05 09:50 13.4 52 6.05 3.8 22 32 1013.9 0 14.2 22.1 30.2 78.9 66.7 227.2
08/05 09:40 13 54 6.12 3.9 37 41 1013.7 0 14.3 22.3 30.6 79.9 67.8 231.3
08/05 09:30 13.1 54 6.16 4 32 41 1013.6 0 14.4 22.3 30.7 80.2 68.2 232.7
08/05 09:20 13.1 54 6.16 4 24 30 1013.4 0 14.4 22.3 30.7 80.2 68.2 232.6
08/05 09:10 12.8 56 6.27 4.3 24 28 1013.4 0 14.7 22.5 31.2 81.6 69.8 238.2
08/05 09:00 12.6 58 6.42 4.6 22 33 1013.2 0 15.0 22.8 31.9 83.3 71.8 245.2
08/05 08:50 12.3 57 6.19 4 20 26 1013.1 0 14.5 22.5 31.1 81.3 69.3 236.2
08/05 08:40 12.1 59 6.33 4.3 17 19 1012.9 0 14.8 22.8 31.7 82.9 71.2 242.8
08/05 08:30 11.9 60 6.36 4.4 17 24 1012.6 0 14.9 22.9 31.9 83.3 71.7 244.7
08/05 08:20 11.6 60 6.24 4.1 19 20 1012.2 0 14.6 22.7 31.6 82.4 70.4 240.2
08/05 08:10 11.1 62 6.25 4.1 20 24 1012.1 0 14.7 22.9 31.8 83.0 71.0 242.2
08/05 08:00 10.4 64 6.17 3.9 17 22 1012.1 0 14.5 22.9 31.8 82.9 70.6 240.8
08/05 07:50 10.1 65 6.15 3.8 15 17 1011.9 0 14.5 23.0 31.8 83.0 70.6 240.8
08/05 07:40 9.8 67 6.22 4 11 13 1011.7 0 14.7 23.2 32.2 84.0 71.8 244.7
08/05 07:30 9.4 65 5.88 3.2 9 17 1011.5 0 14.0 22.7 31.0 81.0 67.8 230.8
08/05 07:20 8.9 68 5.96 3.3 9 11 1011.2 0 14.1 23.0 31.5 82.3 69.3 235.8
08/05 07:10 7.5 71 5.69 2.6 9 11 1011 0 13.6 22.9 31.0 80.9 67.0 227.7
08/05 07:00 6.3 79 5.85 2.9 9 15 1010.7 0 14.0 23.4 32.1 83.8 70.1 238.5
08/05 06:50 7.4 71 5.65 2.5 11 11 1010.6 0 13.5 22.8 30.9 80.6 66.6 226.1
08/05 06:40 8.1 70 5.83 3 7 9 1010.3 0 13.9 22.9 31.3 81.7 68.3 232.1
08/05 06:30 8.8 67 5.83 3 13 20 1010.4 0 13.9 22.8 31.0 81.0 67.7 230.1
08/05 06:20 8.8 66 5.75 2.8 11 13 1010.2 0 13.7 22.6 30.7 80.1 66.6 226.5
08/05 06:10 9.9 64 5.98 3.4 19 22 1010 0 14.2 22.7 31.1 81.3 68.6 233.5
08/05 06:00 9.6 65 5.96 3.4 17 24 1009.6 0 14.1 22.7 31.2 81.4 68.5 233.4
08/05 05:50 10 63 5.92 3.3 17 19 1009.4 0 14.0 22.6 30.9 80.6 67.7 230.4
08/05 05:40 9.1 67 5.95 3.3 13 15 1009.3 0 14.1 22.8 31.3 81.8 68.8 234.3
08/05 05:30 8.9 68 5.96 3.3 15 20 1009.3 0 14.1 22.9 31.4 82.1 69.1 235.4
08/05 05:20 8.7 69 5.97 3.3 13 15 1009.2 0 14.2 23.0 31.5 82.4 69.4 236.4
08/05 05:10 8.3 72 6.07 3.6 19 24 1009 0 14.4 23.2 32.1 83.8 71.1 242.0
08/05 05:00 8.1 71 5.91 3.2 13 19 1008.9 0 14.1 23.0 31.5 82.4 69.2 235.4
08/05 04:50 9.1 67 5.95 3.3 13 15 1008.9 0 14.1 22.8 31.3 81.7 68.8 234.3
08/05 04:40 9.1 68 6.04 3.5 11 13 1008.8 0 14.3 22.9 31.6 82.7 70.0 238.2
08/05 04:30 9.7 65 5.99 3.4 13 26 1008.7 0 14.2 22.7 31.2 81.5 68.8 234.2
08/05 04:20 8.2 74 6.2 3.9 9 9 1008.6 0 14.7 23.4 32.6 85.3 72.8 248.2
08/05 04:10 8.9 71 6.22 3.9 13 15 1008.4 0 14.7 23.3 32.4 84.7 72.4 246.8
08/05 04:00 6.7 85 6.46 4.4 7 17 1008.2 0 15.3 24.2 34.3 89.7 77.7 264.9
08/05 03:50 6.4 84 6.26 3.9 6 9 1008.2 0 14.9 24.0 33.6 87.8 75.3 256.6
08/05 03:40 7 85 6.59 4.7 4 7 1008.1 0 15.6 24.3 34.6 90.7 79.1 270.0
08/05 03:30 7.7 81 6.57 4.7 7 13 1008.2 0 15.5 24.1 34.3 89.7 78.1 266.7
08/05 03:20 9.2 73 6.52 4.6 9 11 1008.1 0 15.3 23.6 33.4 87.5 76.0 259.4
08/05 03:10 7.2 87 6.83 5.2 13 15 1008 0 16.1 24.7 35.5 93.1 82.1 280.5
08/05 03:00 6.2 89 6.55 4.5 11 15 1007.9 0 15.5 24.5 34.8 91.2 79.4 270.8
08/05 02:50 6.5 88 6.6 4.7 9 11 1007.8 0 15.6 24.5 34.9 91.4 79.7 272.1
08/05 02:40 7 91 7.05 5.6 6 7 1007.8 0 16.6 25.1 36.5 95.7 85.3 291.7
08/05 02:30 6.5 93 6.98 5.5 9 13 1007.8 0 16.4 25.1 36.5 95.6 84.9 290.2
08/05 02:20 5.8 87 6.24 3.8 7 9 1007.8 0 14.9 24.1 33.7 88.3 75.6 257.5
08/05 02:10 6.7 90 6.84 5.2 11 13 1007.6 0 16.1 24.8 35.8 93.7 82.7 282.7
08/05 02:00 6.6 89 6.72 4.9 13 17 1007.8 0 15.9 24.7 35.3 92.6 81.2 277.4
08/05 01:50 6.5 92 6.9 5.3 9 11 1007.6 0 16.3 25.0 36.1 94.6 83.8 286.3
08/05 01:40 6.3 93 6.89 5.3 19 20 1007.3 0 16.3 25.0 36.2 94.8 83.8 286.5
08/05 01:30 5.6 94 6.65 4.7 9 13 1007.4 0 15.8 24.8 35.5 93.0 81.3 277.6
08/05 01:20 5.6 93 6.58 4.6 9 9 1007.5 0 15.6 24.7 35.2 92.2 80.4 274.2
08/05 01:10 6 95 6.9 5.3 13 13 1007.3 0 16.3 25.1 36.3 95.2 84.3 288.1
08/05 01:00 4.9 95 6.42 4.2 11 15 1007.3 0 15.3 24.6 34.8 91.2 78.9 269.0
08/05 00:50 4.6 95 6.29 3.9 9 9 1007.5 0 15.0 24.5 34.4 90.2 77.4 263.8
08/05 00:40 4.5 95 6.25 3.8 11 11 1007.4 0 14.9 24.4 34.3 89.8 77.0 262.2
08/05 00:30 4.4 94 6.14 3.5 15 19 1007.3 0 14.7 24.3 33.9 88.7 75.6 257.3
08/05 00:20 4.7 94 6.27 3.8 11 11 1007.4 0 15.0 24.4 34.3 89.8 77.0 262.5
08/05 00:10 6.1 95 6.94 5.4 11 13 1007.4 0 16.4 25.2 36.5 95.6 84.7 289.7
08/05 00:00 5.6 94 6.65 4.7 9 11 1007.6 0 15.8 24.8 35.5 93.0 81.3 277.6
07/05 23:50 5.6 94 6.65 4.7 9 9 1007.5 0 15.8 24.8 35.5 93.0 81.3 277.6
07/05 23:40 5.2 91 6.27 3.9 9 9 1007.4 0 15.0 24.3 34.1 89.2 76.5 260.9
07/05 23:30 6.2 94 6.92 5.3 6 9 1007.7 0 16.3 25.1 36.3 95.2 84.4 288.4
07/05 23:20 5.6 92 6.51 4.4 4 6 1007.6 0 15.5 24.6 34.9 91.4 79.4 270.9
07/05 23:10 6 92 6.68 4.8 15 17 1008 0 15.8 24.8 35.5 92.9 81.3 277.7
07/05 23:00 6.3 92 6.81 5.1 17 20 1008.1 0 16.1 24.9 35.9 93.9 82.8 282.9
07/05 22:50 5.5 90 6.33 4 15 15 1008.3 0 15.1 24.3 34.2 89.6 77.1 262.9
07/05 22:40 6.1 90 6.58 4.6 15 15 1008.4 0 15.6 24.6 35.0 91.7 79.9 272.7
07/05 22:30 6.6 89 6.72 4.9 19 24 1008.5 0 15.9 24.7 35.4 92.6 81.3 277.6
07/05 22:20 6.7 90 6.84 5.2 20 24 1008.5 0 16.1 24.9 35.8 93.8 82.8 282.9
07/05 22:10 6.6 89 6.72 4.9 20 20 1008.6 0 15.9 24.7 35.4 92.6 81.3 277.6
07/05 22:00 7.1 88 6.87 5.3 20 26 1008.7 0 16.2 24.8 35.8 93.7 82.8 283.0
07/05 21:50 6.5 88 6.6 4.7 22 24 1008.7 0 15.6 24.5 34.9 91.5 79.8 272.3
07/05 21:40 6.4 86 6.41 4.2 15 15 1009 0 15.2 24.3 34.2 89.5 77.3 263.8
07/05 21:30 6.4 87 6.49 4.4 19 22 1009.1 0 15.4 24.4 34.5 90.4 78.4 267.6
07/05 21:20 6.2 84 6.18 3.7 17 17 1009.3 0 14.7 23.9 33.4 87.3 74.5 253.8
07/05 21:10 6.4 84 6.26 3.9 22 26 1009.2 0 14.9 24.0 33.6 87.9 75.4 256.8
07/05 21:00 6.4 83 6.19 3.7 26 33 1009.4 0 14.7 23.9 33.3 87.2 74.4 253.6
07/05 20:50 6.4 83 6.19 3.7 26 30 1009.4 0 14.7 23.9 33.3 87.2 74.4 253.6
07/05 20:40 6.4 81 6.04 3.4 22 26 1010 0 14.4 23.7 32.8 85.7 72.5 246.8
07/05 20:30 6.6 80 6.04 3.4 22 28 1010.1 0 14.4 23.6 32.7 85.4 72.3 246.2
07/05 20:20 6.4 80 5.96 3.2 22 24 1010.2 0 14.2 23.6 32.5 84.8 71.5 243.1
07/05 20:10 6.6 80 6.04 3.4 22 24 1010.5 0 14.4 23.7 32.7 85.5 72.3 246.2
07/05 20:00 6.6 79 5.97 3.2 22 30 1010.7 0 14.3 23.6 32.4 84.8 71.4 243.1

Last Refresh: 08-May-2026 12:09:36

Bureau of Meteorology